sensor_id;sensor_type;location;lat;lon;timestamp;pressure;altitude;pressure_sealevel;temperature;humidity
11712;BME280;5912;51.034;6.984;2023-05-13T00:00:26;56444.47;;;-142.13;78.08
11712;BME280;5912;51.034;6.984;2023-05-13T00:02:52;56438.47;;;-142.13;78.08
11712;BME280;5912;51.034;6.984;2023-05-13T00:05:18;56424.44;;;-142.13;78.14
11712;BME280;5912;51.034;6.984;2023-05-13T00:07:43;56454.47;;;-142.13;78.19
11712;BME280;5912;51.034;6.984;2023-05-13T00:10:08;56436.47;;;-142.13;78.11
11712;BME280;5912;51.034;6.984;2023-05-13T00:12:34;56412.41;;;-142.13;78.13
11712;BME280;5912;51.034;6.984;2023-05-13T00:14:59;56444.47;;;-142.13;77.95
11712;BME280;5912;51.034;6.984;2023-05-13T00:17:24;56450.47;;;-142.13;78.44
11712;BME280;5912;51.034;6.984;2023-05-13T00:19:49;56436.47;;;-142.13;78.21
11712;BME280;5912;51.034;6.984;2023-05-13T00:22:15;56422.44;;;-142.13;78.37
11712;BME280;5912;51.034;6.984;2023-05-13T00:24:40;56416.44;;;-142.13;78.16
11712;BME280;5912;51.034;6.984;2023-05-13T00:27:05;56440.47;;;-142.13;78.20
11712;BME280;5912;51.034;6.984;2023-05-13T00:29:31;56450.47;;;-142.13;78.02
11712;BME280;5912;51.034;6.984;2023-05-13T00:31:56;56452.47;;;-142.13;78.03
11712;BME280;5912;51.034;6.984;2023-05-13T00:34:21;56464.50;;;-142.13;77.93
11712;BME280;5912;51.034;6.984;2023-05-13T00:36:46;56462.50;;;-142.13;78.23
11712;BME280;5912;51.034;6.984;2023-05-13T00:39:12;56430.44;;;-142.13;78.01
11712;BME280;5912;51.034;6.984;2023-05-13T00:41:37;56446.47;;;-142.13;78.23
11712;BME280;5912;51.034;6.984;2023-05-13T00:44:02;56480.53;;;-142.13;78.06
11712;BME280;5912;51.034;6.984;2023-05-13T00:46:31;56474.53;;;-142.13;78.11
11712;BME280;5912;51.034;6.984;2023-05-13T00:48:58;56472.50;;;-142.13;78.07
11712;BME280;5912;51.034;6.984;2023-05-13T00:51:23;56456.50;;;-142.13;77.84
11712;BME280;5912;51.034;6.984;2023-05-13T00:53:49;56472.50;;;-142.13;78.33
11712;BME280;5912;51.034;6.984;2023-05-13T00:59:28;56446.47;;;-142.13;78.39
11712;BME280;5912;51.034;6.984;2023-05-13T01:02:17;56490.53;;;-142.13;78.25
11712;BME280;5912;51.034;6.984;2023-05-13T01:04:56;56500.56;;;-142.13;78.48
11712;BME280;5912;51.034;6.984;2023-05-13T01:10:10;56460.50;;;-142.13;78.81
11712;BME280;5912;51.034;6.984;2023-05-13T01:12:41;56462.50;;;-142.13;78.78
11712;BME280;5912;51.034;6.984;2023-05-13T01:15:11;56458.50;;;-142.13;78.94
11712;BME280;5912;51.034;6.984;2023-05-13T01:20:05;56442.47;;;-142.13;79.05
11712;BME280;5912;51.034;6.984;2023-05-13T01:22:32;56458.50;;;-142.13;79.02
11712;BME280;5912;51.034;6.984;2023-05-13T01:24:57;56470.50;;;-142.13;79.27
11712;BME280;5912;51.034;6.984;2023-05-13T01:27:23;56470.50;;;-142.13;79.23
11712;BME280;5912;51.034;6.984;2023-05-13T01:29:49;56440.47;;;-142.13;79.34
11712;BME280;5912;51.034;6.984;2023-05-13T01:32:14;56470.50;;;-142.13;79.41
11712;BME280;5912;51.034;6.984;2023-05-13T01:34:40;56452.47;;;-142.13;79.09
11712;BME280;5912;51.034;6.984;2023-05-13T01:37:06;56446.47;;;-142.13;79.20
11712;BME280;5912;51.034;6.984;2023-05-13T01:39:33;56474.53;;;-142.13;79.20
11712;BME280;5912;51.034;6.984;2023-05-13T01:42:01;56480.53;;;-142.13;79.04
11712;BME280;5912;51.034;6.984;2023-05-13T01:44:27;56486.53;;;-142.13;78.95
11712;BME280;5912;51.034;6.984;2023-05-13T01:46:52;56506.56;;;-142.13;79.11
11712;BME280;5912;51.034;6.984;2023-05-13T01:49:18;56504.56;;;-142.13;79.20
11712;BME280;5912;51.034;6.984;2023-05-13T01:51:43;56464.50;;;-142.13;79.15
11712;BME280;5912;51.034;6.984;2023-05-13T01:54:09;56508.56;;;-142.13;79.08
11712;BME280;5912;51.034;6.984;2023-05-13T01:56:34;56500.56;;;-142.13;78.96
11712;BME280;5912;51.034;6.984;2023-05-13T01:59:00;56508.56;;;-142.13;79.07
11712;BME280;5912;51.034;6.984;2023-05-13T02:01:25;56480.53;;;-142.13;79.20
11712;BME280;5912;51.034;6.984;2023-05-13T02:03:50;56460.50;;;-142.13;79.09
11712;BME280;5912;51.034;6.984;2023-05-13T02:06:16;56480.53;;;-142.13;78.92
11712;BME280;5912;51.034;6.984;2023-05-13T02:08:41;56548.63;;;-142.13;78.92
11712;BME280;5912;51.034;6.984;2023-05-13T02:11:07;56518.59;;;-142.13;79.02
11712;BME280;5912;51.034;6.984;2023-05-13T02:13:32;56484.53;;;-142.13;79.05
11712;BME280;5912;51.034;6.984;2023-05-13T02:15:57;56492.53;;;-142.13;79.26
11712;BME280;5912;51.034;6.984;2023-05-13T02:18:23;56492.53;;;-142.13;79.14
11712;BME280;5912;51.034;6.984;2023-05-13T02:20:48;56468.50;;;-142.13;79.03
11712;BME280;5912;51.034;6.984;2023-05-13T02:23:13;56502.56;;;-142.13;79.33
11712;BME280;5912;51.034;6.984;2023-05-13T02:29:01;56500.56;;;-142.13;79.21
11712;BME280;5912;51.034;6.984;2023-05-13T02:31:26;56506.56;;;-142.13;79.41
11712;BME280;5912;51.034;6.984;2023-05-13T02:33:51;56500.56;;;-142.13;79.43
11712;BME280;5912;51.034;6.984;2023-05-13T02:36:17;56486.53;;;-142.13;79.53
11712;BME280;5912;51.034;6.984;2023-05-13T02:38:42;56496.56;;;-142.13;79.50
11712;BME280;5912;51.034;6.984;2023-05-13T02:41:07;56452.47;;;-142.13;79.58
11712;BME280;5912;51.034;6.984;2023-05-13T02:43:33;56484.53;;;-142.13;79.60
11712;BME280;5912;51.034;6.984;2023-05-13T02:45:58;56490.53;;;-142.13;79.54
11712;BME280;5912;51.034;6.984;2023-05-13T02:48:23;56502.56;;;-142.13;79.58
11712;BME280;5912;51.034;6.984;2023-05-13T02:50:49;56494.56;;;-142.13;79.76
11712;BME280;5912;51.034;6.984;2023-05-13T02:53:14;56484.53;;;-142.13;79.71
11712;BME280;5912;51.034;6.984;2023-05-13T02:55:39;56466.50;;;-142.13;79.71
11712;BME280;5912;51.034;6.984;2023-05-13T02:58:05;56502.56;;;-142.13;79.61
11712;BME280;5912;51.034;6.984;2023-05-13T03:00:30;56514.59;;;-142.13;79.55
11712;BME280;5912;51.034;6.984;2023-05-13T03:02:55;56486.53;;;-142.13;79.81
11712;BME280;5912;51.034;6.984;2023-05-13T03:05:21;56448.47;;;-142.13;79.68
11712;BME280;5912;51.034;6.984;2023-05-13T03:08:24;56484.53;;;-142.13;79.66
11712;BME280;5912;51.034;6.984;2023-05-13T03:10:49;56516.59;;;-142.13;79.85
11712;BME280;5912;51.034;6.984;2023-05-13T03:13:15;56480.53;;;-142.13;79.83
11712;BME280;5912;51.034;6.984;2023-05-13T03:15:40;56458.50;;;-142.13;79.92
11712;BME280;5912;51.034;6.984;2023-05-13T03:18:05;56500.56;;;-142.13;79.69
11712;BME280;5912;51.034;6.984;2023-05-13T03:20:31;56502.56;;;-142.13;79.80
11712;BME280;5912;51.034;6.984;2023-05-13T03:22:56;56482.53;;;-142.13;79.82
11712;BME280;5912;51.034;6.984;2023-05-13T03:25:21;56496.56;;;-142.13;79.81
11712;BME280;5912;51.034;6.984;2023-05-13T03:27:47;56504.56;;;-142.13;79.76
11712;BME280;5912;51.034;6.984;2023-05-13T03:30:12;56456.50;;;-142.13;79.74
11712;BME280;5912;51.034;6.984;2023-05-13T03:32:38;56488.53;;;-142.13;79.70
11712;BME280;5912;51.034;6.984;2023-05-13T03:35:03;56470.50;;;-142.13;79.65
11712;BME280;5912;51.034;6.984;2023-05-13T03:37:28;56500.56;;;-142.13;79.56
11712;BME280;5912;51.034;6.984;2023-05-13T03:39:54;56486.53;;;-142.13;79.55
11712;BME280;5912;51.034;6.984;2023-05-13T03:42:19;56486.53;;;-142.13;79.43
11712;BME280;5912;51.034;6.984;2023-05-13T03:44:45;56546.63;;;-142.13;79.45
11712;BME280;5912;51.034;6.984;2023-05-13T03:47:10;56522.59;;;-142.13;79.61
11712;BME280;5912;51.034;6.984;2023-05-13T03:49:35;56496.56;;;-142.13;79.51
11712;BME280;5912;51.034;6.984;2023-05-13T03:52:01;56504.56;;;-142.13;79.44
11712;BME280;5912;51.034;6.984;2023-05-13T03:54:26;56500.56;;;-142.13;79.53
11712;BME280;5912;51.034;6.984;2023-05-13T03:56:52;56504.56;;;-142.13;79.32
11712;BME280;5912;51.034;6.984;2023-05-13T03:59:17;56472.50;;;-142.13;79.30
11712;BME280;5912;51.034;6.984;2023-05-13T04:01:42;56484.53;;;-142.13;79.29
11712;BME280;5912;51.034;6.984;2023-05-13T04:04:08;56492.53;;;-142.13;78.95
11712;BME280;5912;51.034;6.984;2023-05-13T04:06:33;56510.56;;;-142.13;78.94
11712;BME280;5912;51.034;6.984;2023-05-13T04:08:58;56480.53;;;-142.13;78.86
11712;BME280;5912;51.034;6.984;2023-05-13T04:11:25;56454.47;;;-142.13;78.84
11712;BME280;5912;51.034;6.984;2023-05-13T04:13:50;56528.59;;;-142.13;78.66
11712;BME280;5912;51.034;6.984;2023-05-13T04:16:16;56510.56;;;-142.13;78.70
11712;BME280;5912;51.034;6.984;2023-05-13T04:18:41;56476.53;;;-142.13;78.69
11712;BME280;5912;51.034;6.984;2023-05-13T04:21:07;56484.53;;;-142.13;78.76
11712;BME280;5912;51.034;6.984;2023-05-13T04:23:33;56474.53;;;-142.13;78.86
11712;BME280;5912;51.034;6.984;2023-05-13T04:25:58;56516.59;;;-142.13;78.66
11712;BME280;5912;51.034;6.984;2023-05-13T04:28:33;56466.50;;;-142.13;78.55
11712;BME280;5912;51.034;6.984;2023-05-13T04:30:59;56508.56;;;-142.13;78.62
11712;BME280;5912;51.034;6.984;2023-05-13T04:33:26;56482.53;;;-142.13;78.54
11712;BME280;5912;51.034;6.984;2023-05-13T04:35:52;56480.53;;;-142.13;78.40
11712;BME280;5912;51.034;6.984;2023-05-13T04:38:17;56472.50;;;-142.13;78.41
11712;BME280;5912;51.034;6.984;2023-05-13T04:40:43;56492.53;;;-142.13;78.30
11712;BME280;5912;51.034;6.984;2023-05-13T04:43:12;56478.53;;;-142.13;78.10
11712;BME280;5912;51.034;6.984;2023-05-13T04:45:38;56474.53;;;-142.13;77.98
11712;BME280;5912;51.034;6.984;2023-05-13T04:48:03;56452.47;;;-142.13;77.79
11712;BME280;5912;51.034;6.984;2023-05-13T04:50:29;56476.53;;;-142.13;77.51
11712;BME280;5912;51.034;6.984;2023-05-13T04:52:54;56466.50;;;-142.13;77.34
11712;BME280;5912;51.034;6.984;2023-05-13T04:55:21;56458.50;;;-142.13;77.48
11712;BME280;5912;51.034;6.984;2023-05-13T04:57:46;56448.47;;;-142.13;77.34
11712;BME280;5912;51.034;6.984;2023-05-13T05:00:12;56448.47;;;-142.13;77.02
11712;BME280;5912;51.034;6.984;2023-05-13T05:02:37;56452.47;;;-142.13;76.86
11712;BME280;5912;51.034;6.984;2023-05-13T05:05:02;56462.50;;;-142.13;76.70
11712;BME280;5912;51.034;6.984;2023-05-13T05:07:28;56476.53;;;-142.13;76.65
11712;BME280;5912;51.034;6.984;2023-05-13T05:13:05;56476.53;;;-142.13;76.59
11712;BME280;5912;51.034;6.984;2023-05-13T05:15:31;56428.44;;;-142.13;76.27
11712;BME280;5912;51.034;6.984;2023-05-13T05:17:56;56436.47;;;-142.13;76.14
11712;BME280;5912;51.034;6.984;2023-05-13T05:20:22;56444.47;;;-142.13;75.95
11712;BME280;5912;51.034;6.984;2023-05-13T05:22:48;56424.44;;;-142.13;75.70
11712;BME280;5912;51.034;6.984;2023-05-13T05:25:14;56462.50;;;-142.13;75.39
11712;BME280;5912;51.034;6.984;2023-05-13T05:27:40;56420.44;;;-142.13;75.16
11712;BME280;5912;51.034;6.984;2023-05-13T05:30:07;56420.44;;;-142.13;74.98
11712;BME280;5912;51.034;6.984;2023-05-13T05:32:33;56406.41;;;-142.13;74.56
11712;BME280;5912;51.034;6.984;2023-05-13T05:34:58;56392.38;;;-142.13;74.57
11712;BME280;5912;51.034;6.984;2023-05-13T05:37:27;56384.38;;;-142.13;73.94
11712;BME280;5912;51.034;6.984;2023-05-13T05:39:53;56376.34;;;-142.13;73.61
11712;BME280;5912;51.034;6.984;2023-05-13T05:42:18;56376.34;;;-142.13;73.40
11712;BME280;5912;51.034;6.984;2023-05-13T05:44:43;56388.38;;;-142.13;72.62
11712;BME280;5912;51.034;6.984;2023-05-13T05:47:09;56412.41;;;-142.13;72.25
11712;BME280;5912;51.034;6.984;2023-05-13T05:49:34;56376.34;;;-142.13;72.19
11712;BME280;5912;51.034;6.984;2023-05-13T05:51:59;56364.34;;;-142.13;71.95
11712;BME280;5912;51.034;6.984;2023-05-13T05:54:25;56366.34;;;-142.13;71.35
11712;BME280;5912;51.034;6.984;2023-05-13T05:56:50;56318.25;;;-142.13;70.89
11712;BME280;5912;51.034;6.984;2023-05-13T05:59:15;56360.34;;;-142.13;70.31
11712;BME280;5912;51.034;6.984;2023-05-13T06:01:40;56348.31;;;-142.13;70.46
11712;BME280;5912;51.034;6.984;2023-05-13T06:04:06;56334.28;;;-142.13;69.13
11712;BME280;5912;51.034;6.984;2023-05-13T06:06:31;56336.28;;;-142.13;67.88
11712;BME280;5912;51.034;6.984;2023-05-13T06:08:56;56336.28;;;-142.13;67.48
11712;BME280;5912;51.034;6.984;2023-05-13T06:11:22;56288.22;;;-142.13;66.38
11712;BME280;5912;51.034;6.984;2023-05-13T06:13:48;56288.22;;;-142.13;65.28
11712;BME280;5912;51.034;6.984;2023-05-13T06:16:13;56320.28;;;-142.13;64.19
11712;BME280;5912;51.034;6.984;2023-05-13T06:18:38;56306.25;;;-142.13;63.32
11712;BME280;5912;51.034;6.984;2023-05-13T06:21:04;56286.22;;;-142.13;63.10
11712;BME280;5912;51.034;6.984;2023-05-13T06:23:32;56294.22;;;-142.13;62.81
11712;BME280;5912;51.034;6.984;2023-05-13T06:25:58;56266.19;;;-142.13;62.26
11712;BME280;5912;51.034;6.984;2023-05-13T06:28:24;56236.13;;;-142.13;61.34
11712;BME280;5912;51.034;6.984;2023-05-13T06:30:49;56236.13;;;-142.13;58.97
11712;BME280;5912;51.034;6.984;2023-05-13T06:33:14;56256.16;;;-142.13;57.44
11712;BME280;5912;51.034;6.984;2023-05-13T06:35:40;56236.13;;;-142.13;56.19
11712;BME280;5912;51.034;6.984;2023-05-13T06:38:05;56224.13;;;-142.13;53.87
11712;BME280;5912;51.034;6.984;2023-05-13T06:40:30;56222.13;;;-142.13;50.77
11712;BME280;5912;51.034;6.984;2023-05-13T06:42:56;56208.09;;;-142.13;47.43
11712;BME280;5912;51.034;6.984;2023-05-13T06:45:21;56164.03;;;-142.13;46.92
11712;BME280;5912;51.034;6.984;2023-05-13T06:47:52;56133.97;;;-142.13;44.83
11712;BME280;5912;51.034;6.984;2023-05-13T06:50:17;56137.97;;;-142.13;42.59
11712;BME280;5912;51.034;6.984;2023-05-13T06:52:43;56121.97;;;-142.13;40.94
11712;BME280;5912;51.034;6.984;2023-05-13T06:55:09;56073.88;;;-142.13;39.92
11712;BME280;5912;51.034;6.984;2023-05-13T06:57:34;56107.94;;;-142.13;37.88
11712;BME280;5912;51.034;6.984;2023-05-13T07:00:00;56075.88;;;-142.13;37.72
11712;BME280;5912;51.034;6.984;2023-05-13T07:02:25;56093.91;;;-142.13;36.15
11712;BME280;5912;51.034;6.984;2023-05-13T07:04:51;56073.88;;;-142.13;36.74
11712;BME280;5912;51.034;6.984;2023-05-13T07:07:17;56051.84;;;-142.13;36.20
11712;BME280;5912;51.034;6.984;2023-05-13T07:09:42;56019.81;;;-142.13;36.17
11712;BME280;5912;51.034;6.984;2023-05-13T07:12:08;56011.78;;;-142.13;36.52
11712;BME280;5912;51.034;6.984;2023-05-13T07:14:35;56021.81;;;-142.13;37.03
11712;BME280;5912;51.034;6.984;2023-05-13T07:17:00;56039.84;;;-142.13;37.74
11712;BME280;5912;51.034;6.984;2023-05-13T07:19:27;56071.88;;;-142.13;38.62
11712;BME280;5912;51.034;6.984;2023-05-13T07:21:53;56047.84;;;-142.13;38.31
11712;BME280;5912;51.034;6.984;2023-05-13T07:24:18;56015.81;;;-142.13;38.80
11712;BME280;5912;51.034;6.984;2023-05-13T07:26:43;55975.75;;;-142.13;36.64
11712;BME280;5912;51.034;6.984;2023-05-13T07:29:09;55939.69;;;-142.13;34.92
11712;BME280;5912;51.034;6.984;2023-05-13T07:31:34;55941.69;;;-142.13;33.40
11712;BME280;5912;51.034;6.984;2023-05-13T07:33:59;55907.63;;;-142.13;33.41
11712;BME280;5912;51.034;6.984;2023-05-13T07:36:25;55933.69;;;-142.13;33.52
11712;BME280;5912;51.034;6.984;2023-05-13T07:38:50;55925.66;;;-142.13;33.70
11712;BME280;5912;51.034;6.984;2023-05-13T07:41:15;55981.75;;;-142.13;33.85
11712;BME280;5912;51.034;6.984;2023-05-13T07:43:40;55973.75;;;-142.13;34.00
11712;BME280;5912;51.034;6.984;2023-05-13T07:46:06;56039.84;;;-142.13;35.01
11712;BME280;5912;51.034;6.984;2023-05-13T07:48:31;56075.88;;;-142.13;35.99
11712;BME280;5912;51.034;6.984;2023-05-13T07:50:56;56107.94;;;-142.13;36.67
11712;BME280;5912;51.034;6.984;2023-05-13T07:53:22;56127.97;;;-142.13;37.07
11712;BME280;5912;51.034;6.984;2023-05-13T07:55:48;56115.94;;;-142.13;37.47
11712;BME280;5912;51.034;6.984;2023-05-13T07:58:13;56127.97;;;-142.13;37.68
11712;BME280;5912;51.034;6.984;2023-05-13T08:00:38;56131.97;;;-142.13;38.95
11712;BME280;5912;51.034;6.984;2023-05-13T08:03:04;56131.97;;;-142.13;38.71
11712;BME280;5912;51.034;6.984;2023-05-13T08:05:29;56158.00;;;-142.13;38.48
11712;BME280;5912;51.034;6.984;2023-05-13T08:07:54;56135.97;;;-142.13;38.69
11712;BME280;5912;51.034;6.984;2023-05-13T08:10:20;56129.97;;;-142.13;38.33
11712;BME280;5912;51.034;6.984;2023-05-13T08:12:45;56135.97;;;-142.13;37.96
11712;BME280;5912;51.034;6.984;2023-05-13T08:15:15;56113.94;;;-142.13;36.50
11712;BME280;5912;51.034;6.984;2023-05-13T08:17:41;56087.91;;;-142.13;36.39
11712;BME280;5912;51.034;6.984;2023-05-13T08:20:07;56047.84;;;-142.13;35.33
11712;BME280;5912;51.034;6.984;2023-05-13T08:22:32;56045.84;;;-142.13;35.00
11712;BME280;5912;51.034;6.984;2023-05-13T08:24:58;56037.84;;;-142.13;35.08
11712;BME280;5912;51.034;6.984;2023-05-13T08:27:25;56059.88;;;-142.13;35.13
11712;BME280;5912;51.034;6.984;2023-05-13T08:29:50;56039.84;;;-142.13;35.60
11712;BME280;5912;51.034;6.984;2023-05-13T08:32:15;56023.81;;;-142.13;34.35
11712;BME280;5912;51.034;6.984;2023-05-13T08:34:41;55971.72;;;-142.13;33.74
11712;BME280;5912;51.034;6.984;2023-05-13T08:37:06;55903.63;;;-142.13;32.60
11712;BME280;5912;51.034;6.984;2023-05-13T08:39:32;55857.56;;;-142.13;31.46
11712;BME280;5912;51.034;6.984;2023-05-13T08:41:57;55803.47;;;-142.13;29.46
11712;BME280;5912;51.034;6.984;2023-05-13T08:44:25;55793.47;;;-142.13;29.39
11712;BME280;5912;51.034;6.984;2023-05-13T08:47:01;55757.41;;;-142.13;28.38
11712;BME280;5912;51.034;6.984;2023-05-13T08:49:28;55787.47;;;-142.13;28.83
11712;BME280;5912;51.034;6.984;2023-05-13T08:51:54;55763.44;;;-142.13;28.76
11712;BME280;5912;51.034;6.984;2023-05-13T08:54:19;55761.41;;;-142.13;28.24
11712;BME280;5912;51.034;6.984;2023-05-13T08:56:45;55759.41;;;-142.13;27.92
11712;BME280;5912;51.034;6.984;2023-05-13T08:59:10;55749.41;;;-142.13;27.80
11712;BME280;5912;51.034;6.984;2023-05-13T09:01:36;55775.44;;;-142.13;27.63
11712;BME280;5912;51.034;6.984;2023-05-13T09:04:05;55763.44;;;-142.13;28.05
11712;BME280;5912;51.034;6.984;2023-05-13T09:06:32;55771.44;;;-142.13;28.04
11712;BME280;5912;51.034;6.984;2023-05-13T09:08:58;55779.44;;;-142.13;28.61
11712;BME280;5912;51.034;6.984;2023-05-13T09:11:23;55823.50;;;-142.13;28.66
11712;BME280;5912;51.034;6.984;2023-05-13T09:13:59;55821.50;;;-142.13;30.03
11712;BME280;5912;51.034;6.984;2023-05-13T09:16:26;55843.53;;;-142.13;29.95
11712;BME280;5912;51.034;6.984;2023-05-13T09:18:59;55811.50;;;-142.13;28.88
11712;BME280;5912;51.034;6.984;2023-05-13T09:21:34;55815.50;;;-142.13;28.43
11712;BME280;5912;51.034;6.984;2023-05-13T09:24:08;55823.50;;;-142.13;28.01
11712;BME280;5912;51.034;6.984;2023-05-13T09:26:34;55875.59;;;-142.13;29.20
11712;BME280;5912;51.034;6.984;2023-05-13T09:29:20;55899.63;;;-142.13;30.22
11712;BME280;5912;51.034;6.984;2023-05-13T09:31:48;55917.66;;;-142.13;31.59
11712;BME280;5912;51.034;6.984;2023-05-13T09:34:14;55849.56;;;-142.13;30.67
11712;BME280;5912;51.034;6.984;2023-05-13T09:39:30;55835.53;;;-142.13;30.06
11712;BME280;5912;51.034;6.984;2023-05-13T09:41:56;55795.47;;;-142.13;29.90
11712;BME280;5912;51.034;6.984;2023-05-13T09:44:22;55807.50;;;-142.13;29.61
11712;BME280;5912;51.034;6.984;2023-05-13T09:46:47;55819.50;;;-142.13;29.46
11712;BME280;5912;51.034;6.984;2023-05-13T09:49:14;55771.44;;;-142.13;28.66
11712;BME280;5912;51.034;6.984;2023-05-13T09:51:42;55763.44;;;-142.13;28.94
11712;BME280;5912;51.034;6.984;2023-05-13T09:54:07;55779.44;;;-142.13;28.30
11712;BME280;5912;51.034;6.984;2023-05-13T09:56:34;55751.41;;;-142.13;28.18
11712;BME280;5912;51.034;6.984;2023-05-13T09:59:01;55757.41;;;-142.13;27.85
11712;BME280;5912;51.034;6.984;2023-05-13T10:01:27;55743.41;;;-142.13;27.73
11712;BME280;5912;51.034;6.984;2023-05-13T10:03:56;55753.41;;;-142.13;27.67
11712;BME280;5912;51.034;6.984;2023-05-13T10:06:26;55745.41;;;-142.13;27.23
11712;BME280;5912;51.034;6.984;2023-05-13T10:08:53;55739.38;;;-142.13;28.05
11712;BME280;5912;51.034;6.984;2023-05-13T10:11:22;55763.44;;;-142.13;27.52
11712;BME280;5912;51.034;6.984;2023-05-13T10:14:01;55747.41;;;-142.13;27.17
11712;BME280;5912;51.034;6.984;2023-05-13T10:16:27;55737.38;;;-142.13;27.48
11712;BME280;5912;51.034;6.984;2023-05-13T10:18:56;55739.38;;;-142.13;26.94
11712;BME280;5912;51.034;6.984;2023-05-13T10:21:21;55761.41;;;-142.13;27.29
11712;BME280;5912;51.034;6.984;2023-05-13T10:23:48;55747.41;;;-142.13;27.05
11712;BME280;5912;51.034;6.984;2023-05-13T10:26:16;55717.34;;;-142.13;26.82
11712;BME280;5912;51.034;6.984;2023-05-13T10:28:42;55849.56;;;-142.13;27.34
11712;BME280;5912;51.034;6.984;2023-05-13T10:31:07;55697.34;;;-142.13;27.08
11712;BME280;5912;51.034;6.984;2023-05-13T10:33:33;55727.38;;;-142.13;26.77
11712;BME280;5912;51.034;6.984;2023-05-13T10:41:53;55793.47;;;-142.13;27.80
11712;BME280;5912;51.034;6.984;2023-05-13T10:44:24;55825.50;;;-142.13;28.58
11712;BME280;5912;51.034;6.984;2023-05-13T10:46:49;55881.59;;;-142.13;29.27
11712;BME280;5912;51.034;6.984;2023-05-13T10:49:15;55861.56;;;-142.13;28.95
11712;BME280;5912;51.034;6.984;2023-05-13T10:51:44;55903.63;;;-142.13;27.65
11712;BME280;5912;51.034;6.984;2023-05-13T10:54:18;55915.66;;;-142.13;27.71
11712;BME280;5912;51.034;6.984;2023-05-13T10:56:44;55887.59;;;-142.13;26.70
11712;BME280;5912;51.034;6.984;2023-05-13T10:59:10;55887.59;;;-142.13;26.82
11712;BME280;5912;51.034;6.984;2023-05-13T11:01:37;55897.63;;;-142.13;27.10
11712;BME280;5912;51.034;6.984;2023-05-13T11:04:14;55891.63;;;-142.13;27.32
11712;BME280;5912;51.034;6.984;2023-05-13T11:06:41;55895.63;;;-142.13;27.77
11712;BME280;5912;51.034;6.984;2023-05-13T11:09:11;55899.63;;;-142.13;26.53
11712;BME280;5912;51.034;6.984;2023-05-13T11:11:37;55913.66;;;-142.13;25.86
11712;BME280;5912;51.034;6.984;2023-05-13T11:14:18;55901.63;;;-142.13;26.65
11712;BME280;5912;51.034;6.984;2023-05-13T11:17:07;55879.59;;;-142.13;25.86
11712;BME280;5912;51.034;6.984;2023-05-13T11:19:47;55903.63;;;-142.13;26.14
11712;BME280;5912;51.034;6.984;2023-05-13T11:22:18;55927.66;;;-142.13;26.46
11712;BME280;5912;51.034;6.984;2023-05-13T11:24:45;55943.69;;;-142.13;26.75
11712;BME280;5912;51.034;6.984;2023-05-13T11:27:13;55971.72;;;-142.13;27.35
11712;BME280;5912;51.034;6.984;2023-05-13T11:29:52;56023.81;;;-142.13;29.39
11712;BME280;5912;51.034;6.984;2023-05-13T11:35:41;56051.84;;;-142.13;31.58
11712;BME280;5912;51.034;6.984;2023-05-13T11:38:07;56107.94;;;-142.13;31.85
11712;BME280;5912;51.034;6.984;2023-05-13T11:40:35;56111.94;;;-142.13;32.08
11712;BME280;5912;51.034;6.984;2023-05-13T11:43:01;56107.94;;;-142.13;32.84
11712;BME280;5912;51.034;6.984;2023-05-13T11:45:30;56107.94;;;-142.13;33.21
11712;BME280;5912;51.034;6.984;2023-05-13T11:47:56;56083.91;;;-142.13;32.28
11712;BME280;5912;51.034;6.984;2023-05-13T11:50:28;56053.84;;;-142.13;31.99
11712;BME280;5912;51.034;6.984;2023-05-13T11:53:00;56055.84;;;-142.13;31.12
11712;BME280;5912;51.034;6.984;2023-05-13T11:55:29;56035.81;;;-142.13;31.17
11712;BME280;5912;51.034;6.984;2023-05-13T11:57:55;56041.84;;;-142.13;30.54
11712;BME280;5912;51.034;6.984;2023-05-13T12:00:25;56059.88;;;-142.13;31.29
11712;BME280;5912;51.034;6.984;2023-05-13T12:02:51;56053.84;;;-142.13;31.36
11712;BME280;5912;51.034;6.984;2023-05-13T12:05:16;56065.88;;;-142.13;31.17
11712;BME280;5912;51.034;6.984;2023-05-13T12:07:42;56069.88;;;-142.13;31.35
11712;BME280;5912;51.034;6.984;2023-05-13T12:10:07;56067.88;;;-142.13;32.00
11712;BME280;5912;51.034;6.984;2023-05-13T12:12:36;56075.88;;;-142.13;32.19
11712;BME280;5912;51.034;6.984;2023-05-13T12:15:06;56051.84;;;-142.13;31.50
11712;BME280;5912;51.034;6.984;2023-05-13T12:17:32;56067.88;;;-142.13;31.07
11712;BME280;5912;51.034;6.984;2023-05-13T12:20:30;56045.84;;;-142.13;30.32
11712;BME280;5912;51.034;6.984;2023-05-13T12:22:59;56057.88;;;-142.13;31.09
11712;BME280;5912;51.034;6.984;2023-05-13T12:25:41;56057.88;;;-142.13;31.42
11712;BME280;5912;51.034;6.984;2023-05-13T12:28:09;56071.88;;;-142.13;31.31
11712;BME280;5912;51.034;6.984;2023-05-13T12:30:36;56039.84;;;-142.13;31.05
11712;BME280;5912;51.034;6.984;2023-05-13T12:33:02;56061.88;;;-142.13;30.19
11712;BME280;5912;51.034;6.984;2023-05-13T12:35:32;56047.84;;;-142.13;30.38
11712;BME280;5912;51.034;6.984;2023-05-13T12:37:59;56047.84;;;-142.13;29.98
11712;BME280;5912;51.034;6.984;2023-05-13T12:40:25;56051.84;;;-142.13;29.44
11712;BME280;5912;51.034;6.984;2023-05-13T12:42:50;56067.88;;;-142.13;29.72
11712;BME280;5912;51.034;6.984;2023-05-13T12:45:16;56057.88;;;-142.13;29.04
11712;BME280;5912;51.034;6.984;2023-05-13T12:47:48;56091.91;;;-142.13;29.02
11712;BME280;5912;51.034;6.984;2023-05-13T12:50:15;56017.81;;;-142.13;28.93
11712;BME280;5912;51.034;6.984;2023-05-13T12:52:40;56029.81;;;-142.13;28.88
11712;BME280;5912;51.034;6.984;2023-05-13T12:55:06;56037.84;;;-142.13;28.85
11712;BME280;5912;51.034;6.984;2023-05-13T12:57:31;55997.78;;;-142.13;28.88
11712;BME280;5912;51.034;6.984;2023-05-13T12:59:56;55979.75;;;-142.13;28.22
11712;BME280;5912;51.034;6.984;2023-05-13T13:02:22;55947.69;;;-142.13;27.43
11712;BME280;5912;51.034;6.984;2023-05-13T13:04:47;55949.69;;;-142.13;27.09
11712;BME280;5912;51.034;6.984;2023-05-13T13:07:12;55959.72;;;-142.13;27.93
11712;BME280;5912;51.034;6.984;2023-05-13T13:09:38;55995.78;;;-142.13;28.27
11712;BME280;5912;51.034;6.984;2023-05-13T13:12:04;56005.78;;;-142.13;29.50
11712;BME280;5912;51.034;6.984;2023-05-13T13:14:29;56039.84;;;-142.13;31.18